Time;durP1;ratioP1;P1;durP2;ratioP2;P2;SDS_P1;SDS_P2;PMS_P1;PMS_P2;Temp;Humidity;BMP_temperature;BMP_pressure;BME280_temperature;BME280_humidity;BME280_pressure;Samples;Min_cycle;Max_cycle;Signal;HPM_P1;HPM_P2
2024/01/02 00:00:41;;;;;;;16.57;4.60;;;7.00;96.60;;;8.34;71.16;100290.41;3081737;46;20438;-65
2024/01/02 00:03:10;;;;;;;16.37;4.87;;;7.00;96.70;;;8.34;71.03;100293.84;3082264;46;20445;-62
2024/01/02 00:05:38;;;;;;;14.77;5.23;;;7.00;96.60;;;8.36;70.64;100288.44;3081927;46;20461;-64
2024/01/02 00:08:07;;;;;;;15.27;5.07;;;7.00;96.70;;;8.34;70.81;100295.66;3081530;46;20438;-65
2024/01/02 00:10:35;;;;;;;16.40;4.47;;;7.00;96.70;;;8.32;70.81;100287.94;3081931;46;20457;-65
2024/01/02 00:13:03;;;;;;;13.30;4.40;;;7.00;96.70;;;8.32;70.93;100280.06;3081391;46;20490;-64
2024/01/02 00:15:32;;;;;;;15.03;4.83;;;6.90;96.60;;;8.34;70.40;100269.44;3081857;46;20428;-65
2024/01/02 00:18:00;;;;;;;14.17;4.93;;;6.90;96.60;;;8.35;70.63;100271.03;3081247;46;21145;-65
2024/01/02 00:20:29;;;;;;;10.23;4.33;;;6.90;96.60;;;8.36;70.22;100264.81;3081927;46;20452;-65
2024/01/02 00:22:57;;;;;;;14.67;3.67;;;6.90;96.60;;;8.37;70.13;100261.22;3081644;46;20441;-63
2024/01/02 00:25:26;;;;;;;12.50;4.70;;;6.90;96.60;;;8.36;70.19;100251.72;3081754;46;20642;-66
2024/01/02 00:27:54;;;;;;;12.57;4.27;;;6.90;96.60;;;8.37;70.30;100256.00;3081591;46;20443;-65
2024/01/02 00:30:22;;;;;;;17.43;5.33;;;6.90;96.60;;;8.36;70.02;100249.09;3080547;46;20443;-63
2024/01/02 00:32:51;;;;;;;13.63;4.03;;;6.90;96.60;;;8.36;70.18;100249.09;3081609;46;20496;-65
2024/01/02 00:35:20;;;;;;;14.73;4.97;;;6.80;96.50;;;8.32;70.38;100243.38;3081691;46;20443;-65
2024/01/02 00:37:48;;;;;;;17.10;5.23;;;6.80;96.60;;;8.32;70.24;100234.72;3081002;46;20465;-64
2024/01/02 00:40:16;;;;;;;15.03;4.40;;;6.80;96.50;;;8.28;70.06;100231.59;3081370;46;20461;-65
2024/01/02 00:42:45;;;;;;;8.70;3.77;;;6.80;96.60;;;8.27;70.13;100229.16;3081402;46;20446;-64
2024/01/02 00:45:14;;;;;;;11.23;4.37;;;6.80;96.60;;;8.26;70.46;100217.00;3081892;46;20987;-65
2024/01/02 00:47:42;;;;;;;15.13;3.80;;;6.80;96.60;;;8.27;70.22;100218.69;3081168;46;20572;-64
2024/01/02 00:50:11;;;;;;;11.43;3.97;;;6.80;96.60;;;8.25;70.32;100210.13;3081357;46;20464;-66
2024/01/02 00:52:40;;;;;;;16.73;4.57;;;6.80;96.60;;;8.22;70.29;100207.84;3081294;46;20431;-66
2024/01/02 00:55:08;;;;;;;13.50;4.47;;;6.80;96.70;;;8.24;70.35;100209.31;3081594;46;20423;-65
2024/01/02 00:57:36;;;;;;;16.90;4.83;;;6.80;96.60;;;8.24;70.39;100195.38;3080936;46;20482;-64
2024/01/02 01:00:06;;;;;;;10.63;4.83;;;6.80;96.60;;;8.24;70.20;100198.84;3081170;46;20472;-63
2024/01/02 01:02:34;;;;;;;16.40;4.13;;;6.80;96.60;;;8.27;70.13;100192.47;3081198;46;20610;-65
2024/01/02 01:05:04;;;;;;;9.43;3.47;;;6.80;96.70;;;8.27;70.16;100197.69;3081342;46;20442;-65
2024/01/02 01:07:32;;;;;;;13.67;4.50;;;6.80;96.70;;;8.27;70.02;100192.47;3080940;46;20443;-65
2024/01/02 01:10:00;;;;;;;17.40;4.60;;;6.80;96.70;;;8.27;70.02;100192.47;3081181;46;20521;-66
2024/01/02 01:12:29;;;;;;;12.43;4.00;;;6.80;96.70;;;8.28;70.10;100188.84;3081327;46;20434;-64
2024/01/02 01:14:58;;;;;;;16.00;4.10;;;6.80;96.70;;;8.28;70.33;100180.97;3081113;46;20430;-66
2024/01/02 01:17:26;;;;;;;14.20;3.97;;;6.70;96.60;;;8.29;70.13;100170.31;3080736;46;20536;-65
2024/01/02 01:19:56;;;;;;;8.13;3.70;;;6.80;96.70;;;8.32;70.09;100159.47;3081558;46;20427;-65
2024/01/02 01:22:24;;;;;;;9.73;4.23;;;6.80;97.10;;;8.39;70.13;100157.78;3081285;46;20451;-65
2024/01/02 01:24:53;;;;;;;15.80;3.90;;;6.80;96.90;;;8.48;70.02;100155.94;3080910;46;20517;-65
2024/01/02 01:27:21;;;;;;;12.43;4.07;;;6.80;97.00;;;8.57;69.91;100152.25;3080812;46;20569;-65
2024/01/02 01:29:49;;;;;;;12.63;3.97;;;6.90;97.10;;;8.60;69.52;100149.28;3081203;46;20460;-64
2024/01/02 01:32:18;;;;;;;13.13;3.53;;;6.90;96.80;;;8.62;69.62;100140.25;3080889;46;20452;-66
2024/01/02 01:34:46;;;;;;;17.37;4.90;;;7.00;96.70;;;8.65;69.39;100144.34;3081067;46;20525;-65
2024/01/02 01:37:15;;;;;;;14.27;4.50;;;7.00;96.70;;;8.68;69.30;100134.28;3080793;46;20574;-66
2024/01/02 01:39:43;;;;;;;17.37;4.83;;;7.00;96.70;;;8.70;69.00;100129.69;3080877;46;20559;-64
2024/01/02 01:42:11;;;;;;;12.60;4.33;;;7.10;96.50;;;8.70;68.88;100126.25;3081198;46;20446;-65
2024/01/02 01:44:40;;;;;;;15.53;4.60;;;7.10;96.40;;;8.69;68.79;100111.50;3080749;46;20522;-61
2024/01/02 01:47:08;;;;;;;10.83;4.67;;;7.10;96.30;;;8.70;68.88;100113.16;3080515;46;20441;-63
2024/01/02 01:49:37;;;;;;;11.77;4.23;;;7.10;96.20;;;8.69;68.80;100101.81;3082523;46;20434;-61
2024/01/02 01:52:07;;;;;;;13.33;4.70;;;7.10;96.20;;;8.71;69.02;100106.88;3083651;46;20556;-65
2024/01/02 01:54:36;;;;;;;12.60;4.57;;;7.10;96.20;;;8.74;68.90;100101.28;3082342;46;20878;-66
2024/01/02 01:57:05;;;;;;;8.37;4.13;;;7.10;96.20;;;8.75;68.60;100092.41;3082719;46;20565;-65
2024/01/02 01:59:33;;;;;;;10.57;4.17;;;7.10;96.10;;;8.73;68.50;100083.91;3082825;46;20498;-66
2024/01/02 02:02:02;;;;;;;15.67;4.70;;;7.20;96.10;;;8.73;68.45;100078.66;3083466;46;20427;-65
2024/01/02 02:04:35;;;;;;;12.03;4.10;;;7.20;96.10;;;8.72;68.54;100077.06;3083193;46;21042;-66
2024/01/02 02:07:04;;;;;;;12.07;3.97;;;7.20;96.10;;;8.72;68.84;100071.81;3081945;46;20467;-66
2024/01/02 02:09:32;;;;;;;12.13;4.10;;;7.20;96.10;;;8.76;68.74;100059.94;3082834;46;21004;-65
2024/01/02 02:12:01;;;;;;;14.00;4.53;;;7.20;96.10;;;8.78;68.70;100056.16;3082858;46;20426;-64
2024/01/02 02:14:29;;;;;;;15.70;4.37;;;7.20;96.10;;;8.80;68.67;100043.66;3083000;46;20569;-65
2024/01/02 02:16:58;;;;;;;13.87;4.50;;;7.20;96.10;;;8.80;68.20;100040.22;3082405;46;20439;-65
2024/01/02 02:19:26;;;;;;;7.43;3.53;;;7.20;96.00;;;8.79;68.47;100041.22;3083408;46;20443;-63
2024/01/02 02:22:00;;;;;;;13.70;4.23;;;7.20;96.00;;;8.75;68.45;100027.66;3082654;46;20435;-66
2024/01/02 02:24:29;;;;;;;15.43;4.00;;;7.30;96.00;;;8.77;68.29;100028.28;3083250;46;20432;-63
2024/01/02 02:27:00;;;;;;;11.73;4.37;;;7.20;96.10;;;8.82;68.70;100027.72;3082764;46;20438;-64
2024/01/02 02:29:29;;;;;;;14.17;4.30;;;7.30;95.90;;;8.86;68.60;100021.16;3082842;46;20485;-65
2024/01/02 02:31:57;;;;;;;9.63;4.10;;;7.30;96.00;;;8.87;68.00;100012.25;3083186;46;20518;-65
2024/01/02 02:34:25;;;;;;;13.33;4.13;;;7.30;95.90;;;8.86;67.98;100000.16;3082826;46;20993;-66
2024/01/02 02:36:54;;;;;;;17.33;4.50;;;7.30;95.80;;;8.90;68.22;100006.66;3082821;46;20463;-65
2024/01/02 02:39:22;;;;;;;11.90;3.87;;;7.40;95.90;;;8.94;68.30;99989.56;3082787;46;20569;-63
2024/01/02 02:41:51;;;;;;;12.80;3.77;;;7.40;95.90;;;8.99;68.37;99989.81;3082773;46;20431;-65
2024/01/02 02:44:19;;;;;;;12.30;3.87;;;7.40;95.90;;;9.00;67.99;99980.97;3083162;46;21151;-62
2024/01/02 02:46:47;;;;;;;12.03;4.00;;;7.40;95.80;;;9.03;67.76;99975.34;3082340;46;20528;-65
2024/01/02 02:49:16;;;;;;;10.00;3.60;;;7.40;95.80;;;9.03;67.63;99964.84;3082210;46;20451;-65
2024/01/02 02:51:44;;;;;;;9.30;3.77;;;7.40;95.80;;;9.04;67.74;99965.66;3082997;46;20455;-65
2024/01/02 02:54:13;;;;;;;13.40;3.40;;;7.50;95.70;;;9.07;67.64;99954.78;3082919;46;20432;-65
2024/01/02 02:56:43;;;;;;;16.23;4.10;;;7.50;95.70;;;9.06;67.61;99948.72;3082386;46;21171;-64
2024/01/02 02:59:12;;;;;;;13.40;4.90;;;7.50;95.60;;;9.07;67.61;99937.25;3082691;46;20486;-65
2024/01/02 03:01:41;;;;;;;14.23;3.57;;;7.50;95.60;;;9.10;67.42;99926.38;3082327;46;20432;-64
2024/01/02 03:04:09;;;;;;;11.80;3.60;;;7.50;95.60;;;9.11;67.59;99927.16;3082835;46;20495;-65
2024/01/02 03:06:38;;;;;;;13.33;3.47;;;7.60;95.60;;;9.12;67.55;99929.63;3082164;46;20428;-65
2024/01/02 03:09:06;;;;;;;11.87;3.90;;;7.60;95.60;;;9.12;67.53;99924.38;3082801;46;21009;-66
2024/01/02 03:11:34;;;;;;;12.50;4.20;;;7.60;95.60;;;9.13;67.62;99915.47;3082137;46;21055;-66
2024/01/02 03:14:03;;;;;;;9.37;3.10;;;7.60;95.50;;;9.11;67.52;99912.25;3082820;46;20995;-63
2024/01/02 03:16:31;;;;;;;11.30;3.90;;;7.60;95.50;;;9.17;67.70;99903.63;3082368;46;20581;-62
2024/01/02 03:18:59;;;;;;;9.20;3.27;;;7.60;95.50;;;9.19;67.74;99891.13;3082493;46;20448;-65
2024/01/02 03:21:28;;;;;;;18.60;3.50;;;7.60;95.60;;;9.23;67.78;99881.88;3082473;46;20457;-65
2024/01/02 03:23:58;;;;;;;16.27;3.63;;;7.60;95.60;;;9.28;67.34;99882.13;3082401;46;20538;-65
2024/01/02 03:26:26;;;;;;;13.37;3.47;;;7.70;95.60;;;9.27;67.43;99877.06;3081724;46;20443;-66
2024/01/02 03:28:54;;;;;;;10.77;3.00;;;7.70;95.50;;;9.27;67.49;99872.63;3081680;46;21100;-65
2024/01/02 03:31:23;;;;;;;11.73;3.63;;;7.70;95.50;;;9.26;67.41;99868.38;3082732;46;20428;-62
2024/01/02 03:33:51;;;;;;;11.47;3.43;;;7.80;95.50;;;9.26;67.52;99865.75;3082460;46;20454;-65
2024/01/02 03:36:21;;;;;;;9.33;3.23;;;7.70;95.60;;;9.26;67.68;99860.50;3081911;46;21162;-62
2024/01/02 03:38:54;;;;;;;12.90;3.83;;;7.70;95.50;;;9.23;67.59;99850.38;3082197;46;20439;-65
2024/01/02 03:41:22;;;;;;;10.00;3.33;;;7.70;95.60;;;9.19;68.04;99846.50;3081775;46;20529;-65
2024/01/02 03:43:50;;;;;;;15.23;4.10;;;7.70;95.60;;;9.13;68.40;99839.38;3082134;46;20451;-64
2024/01/02 03:46:19;;;;;;;10.53;3.30;;;7.70;95.70;;;9.12;68.40;99832.50;3082259;46;20534;-63
2024/01/02 03:48:47;;;;;;;9.50;3.17;;;7.70;95.70;;;9.12;68.56;99824.63;3081688;46;20467;-66
2024/01/02 03:51:16;;;;;;;8.10;3.20;;;7.70;95.80;;;9.10;68.51;99813.50;3082370;46;20440;-64
2024/01/02 03:53:44;;;;;;;6.63;3.10;;;7.70;95.90;;;9.07;69.05;99813.06;3082350;46;20439;-66
2024/01/02 03:56:16;;;;;;;10.47;3.77;;;7.60;95.90;;;9.02;69.33;99795.25;3082585;46;21061;-65
2024/01/02 03:58:44;;;;;;;9.03;3.30;;;7.60;96.00;;;9.01;69.09;99796.25;3081152;46;20451;-65
2024/01/02 04:01:13;;;;;;;11.60;3.70;;;7.60;96.00;;;9.02;69.39;99787.38;3082300;46;20895;-63
2024/01/02 04:03:41;;;;;;;12.90;3.27;;;7.60;96.10;;;9.02;69.51;99779.50;3081784;46;20429;-63
2024/01/02 04:06:10;;;;;;;9.27;3.37;;;7.60;96.20;;;9.00;69.68;99771.00;3081716;46;20460;-64
2024/01/02 04:08:39;;;;;;;7.47;3.00;;;7.60;96.30;;;8.96;69.64;99763.72;3081142;46;20439;-65
2024/01/02 04:11:08;;;;;;;10.60;3.03;;;7.60;96.40;;;8.96;70.09;99756.66;3081020;46;20431;-65
2024/01/02 04:13:36;;;;;;;10.80;2.57;;;7.60;96.40;;;8.99;69.75;99752.81;3081772;46;20439;-65
2024/01/02 04:16:05;;;;;;;11.40;2.80;;;7.60;96.50;;;8.99;69.87;99743.13;3081769;46;20558;-62
2024/01/02 04:18:33;;;;;;;7.97;3.00;;;7.60;96.50;;;8.99;70.16;99748.38;3081093;46;20456;-64
2024/01/02 04:21:02;;;;;;;10.87;2.67;;;7.60;96.50;;;9.04;70.11;99740.75;3081944;46;20423;-65
2024/01/02 04:23:30;;;;;;;10.07;2.90;;;7.60;96.60;;;9.06;69.95;99738.75;3081856;46;20432;-66
2024/01/02 04:25:59;;;;;;;8.60;2.97;;;7.60;96.60;;;9.05;70.10;99731.09;3081929;46;21051;-65
2024/01/02 04:28:27;;;;;;;9.23;3.03;;;7.60;96.70;;;9.06;70.13;99717.75;3081221;46;20599;-64
2024/01/02 04:30:55;;;;;;;12.70;3.40;;;7.60;96.70;;;9.05;70.04;99710.91;3081684;46;20585;-65
2024/01/02 04:33:24;;;;;;;12.03;3.10;;;7.60;96.70;;;9.02;70.09;99705.22;3081671;46;20553;-65
2024/01/02 04:35:52;;;;;;;9.27;2.80;;;7.60;96.80;;;9.00;70.50;99700.16;3081572;46;21008;-66
2024/01/02 04:38:20;;;;;;;9.50;3.50;;;7.60;96.80;;;8.94;70.63;99682.53;3081051;46;20527;-65
2024/01/02 04:40:49;;;;;;;9.90;2.57;;;7.60;96.80;;;8.87;71.21;99680.88;3081441;46;20528;-63
2024/01/02 04:43:17;;;;;;;12.97;3.00;;;7.60;96.90;;;8.85;71.08;99678.44;3081607;46;20427;-65
2024/01/02 04:45:46;;;;;;;8.57;3.07;;;7.60;97.00;;;8.88;71.56;99666.75;3081422;46;20457;-64
2024/01/02 04:48:14;;;;;;;11.00;3.07;;;7.60;97.00;;;8.89;71.39;99658.69;3081091;46;20439;-65
2024/01/02 04:50:43;;;;;;;10.13;3.10;;;7.50;97.10;;;8.82;71.66;99648.13;3081205;46;20440;-65
2024/01/02 04:53:11;;;;;;;6.10;2.30;;;7.50;97.20;;;8.78;71.88;99652.16;3081520;46;20426;-65
2024/01/02 04:55:39;;;;;;;7.40;3.07;;;7.50;97.30;;;8.74;72.31;99635.19;3081782;46;20443;-65
2024/01/02 04:58:08;;;;;;;14.33;2.90;;;7.50;97.30;;;8.73;72.31;99637.97;3080935;46;20442;-64
2024/01/02 05:00:36;;;;;;;11.90;2.73;;;7.50;97.40;;;8.70;72.80;99628.66;3083144;46;20432;-65
2024/01/02 05:03:05;;;;;;;11.73;2.90;;;7.50;97.50;;;8.72;72.58;99625.88;3081549;46;20993;-63
2024/01/02 05:05:33;;;;;;;7.80;2.27;;;7.50;97.50;;;8.67;72.83;99633.50;3081499;46;21097;-65
2024/01/02 05:08:02;;;;;;;11.40;3.00;;;7.50;97.60;;;8.64;72.87;99624.19;3080524;46;20578;-66
2024/01/02 05:10:31;;;;;;;10.33;2.73;;;7.50;97.70;;;8.63;73.30;99624.38;3081257;46;20428;-64
2024/01/02 05:12:59;;;;;;;10.63;2.80;;;7.40;97.60;;;8.58;73.47;99611.03;3080967;46;21072;-63
2024/01/02 05:15:27;;;;;;;9.03;2.37;;;7.40;97.70;;;8.55;73.52;99599.13;3081445;46;20432;-63
2024/01/02 05:17:56;;;;;;;7.57;2.87;;;7.40;97.80;;;8.56;73.93;99599.91;3080845;46;20472;-66
2024/01/02 05:20:25;;;;;;;9.20;2.87;;;7.40;97.90;;;8.59;73.91;99594.28;3081275;46;20427;-66
2024/01/02 05:22:53;;;;;;;9.40;2.27;;;7.40;98.00;;;8.58;73.73;99587.44;3081779;46;20987;-66
2024/01/02 05:25:36;;;;;;;9.50;2.87;;;7.40;98.00;;;8.54;74.08;99580.94;3083647;46;20514;-64
2024/01/02 05:28:05;;;;;;;5.60;2.10;;;7.40;98.10;;;8.57;74.31;99570.88;3083325;46;20439;-65
2024/01/02 05:30:34;;;;;;;7.53;2.30;;;7.40;98.10;;;8.62;74.30;99572.94;3083583;46;20526;-63
2024/01/02 05:33:03;;;;;;;9.00;2.93;;;7.40;98.50;;;8.62;74.24;99557.19;3083768;46;20434;-65
2024/01/02 05:35:32;;;;;;;9.50;2.47;;;7.40;98.30;;;8.64;74.22;99553.38;3083790;46;20544;-65
2024/01/02 05:38:02;;;;;;;7.67;1.77;;;7.40;98.30;;;8.68;74.05;99557.25;3082731;46;21004;-66
2024/01/02 05:40:30;;;;;;;9.80;2.30;;;7.40;98.40;;;8.64;74.48;99542.06;3083288;46;21052;-64
2024/01/02 05:42:59;;;;;;;5.30;1.83;;;7.40;98.40;;;8.63;74.64;99543.06;3083322;46;20427;-66
2024/01/02 05:45:27;;;;;;;8.33;2.33;;;7.40;98.40;;;8.63;74.68;99538.63;3083282;46;20427;-65
2024/01/02 05:47:56;;;;;;;11.00;2.67;;;7.40;98.50;;;8.65;74.65;99541.09;3082869;46;21098;-65
2024/01/02 05:50:24;;;;;;;6.80;1.97;;;7.40;98.50;;;8.71;74.61;99540.31;3083116;46;20501;-65
2024/01/02 05:52:53;;;;;;;8.17;2.87;;;7.40;98.50;;;8.72;74.77;99536.69;3083827;46;20468;-65
2024/01/02 05:55:21;;;;;;;6.03;2.03;;;7.40;98.60;;;8.73;74.82;99528.63;3083447;46;20438;-65
2024/01/02 05:57:49;;;;;;;8.97;2.30;;;7.50;98.70;;;8.73;74.69;99512.06;3082904;46;21265;-65
2024/01/02 06:00:18;;;;;;;6.97;2.30;;;7.50;98.70;;;8.74;74.91;99517.16;3083347;46;20459;-64
2024/01/02 06:02:47;;;;;;;5.20;1.53;;;7.50;98.70;;;8.72;74.96;99510.47;3083227;46;20465;-64
2024/01/02 06:05:16;;;;;;;8.53;2.17;;;7.50;98.70;;;8.69;75.21;99497.72;3082586;46;20446;-65
2024/01/02 06:07:45;;;;;;;6.73;2.23;;;7.50;98.80;;;8.65;75.58;99483.38;3082555;46;20564;-65
2024/01/02 06:10:13;;;;;;;7.13;2.07;;;7.50;98.80;;;8.65;75.68;99475.53;3082905;46;20549;-66
2024/01/02 06:12:42;;;;;;;6.10;2.27;;;7.50;98.80;;;8.66;75.63;99464.00;3083305;46;20435;-65
2024/01/02 06:15:13;;;;;;;4.97;1.60;;;7.50;98.80;;;8.59;75.56;99447.44;3082953;46;20937;-64
2024/01/02 06:17:45;;;;;;;4.20;1.67;;;7.50;98.90;;;8.62;75.60;99452.31;3082701;46;20518;-65
2024/01/02 06:20:14;;;;;;;3.37;1.60;;;7.50;98.90;;;8.63;76.05;99446.84;3082737;46;20463;-61
2024/01/02 06:22:42;;;;;;;5.00;2.00;;;7.50;98.90;;;8.63;76.04;99448.66;3083207;46;20462;-66
2024/01/02 06:25:11;;;;;;;7.03;2.00;;;7.50;99.00;;;8.62;75.98;99447.88;3083288;46;20439;-63
2024/01/02 06:27:40;;;;;;;6.90;1.93;;;7.50;99.00;;;8.59;76.11;99434.31;3082947;46;20522;-63
2024/01/02 06:30:09;;;;;;;8.07;1.97;;;7.50;99.00;;;8.63;75.96;99427.69;3082707;46;20451;-66
2024/01/02 06:32:37;;;;;;;5.07;2.03;;;7.50;99.10;;;8.62;76.07;99436.56;3083061;46;21039;-65
2024/01/02 06:35:06;;;;;;;3.80;1.57;;;7.50;99.10;;;8.64;75.96;99424.06;3082772;46;20427;-64
2024/01/02 06:37:35;;;;;;;6.43;2.30;;;7.50;99.10;;;8.64;75.98;99416.19;3082620;46;20581;-65
2024/01/02 06:40:06;;;;;;;3.40;1.90;;;7.50;99.20;;;8.69;75.93;99416.44;3082533;46;21037;-65
2024/01/02 06:42:35;;;;;;;7.03;1.83;;;7.50;99.20;;;8.72;75.99;99424.69;3082652;46;20435;-63
2024/01/02 06:45:04;;;;;;;2.70;2.07;;;7.50;99.20;;;8.75;76.30;99411.19;3083220;46;20431;-62
2024/01/02 06:47:33;;;;;;;6.00;2.20;;;7.50;99.30;;;8.79;76.22;99406.38;3082223;46;20511;-66
2024/01/02 06:50:02;;;;;;;7.47;2.80;;;7.50;99.30;;;8.77;75.93;99403.16;3082189;46;20521;-63
2024/01/02 06:52:30;;;;;;;6.83;2.03;;;7.50;99.30;;;8.76;76.31;99391.03;3082981;46;20980;-66
2024/01/02 06:54:59;;;;;;;5.83;2.20;;;7.50;99.40;;;8.73;76.38;99391.41;3082640;46;20553;-65
2024/01/02 06:57:27;;;;;;;5.10;1.80;;;7.50;99.40;;;8.72;76.61;99395.06;3082704;46;21037;-64
2024/01/02 06:59:56;;;;;;;6.67;2.10;;;7.50;99.50;;;8.68;76.92;99388.56;3082684;46;20494;-63
2024/01/02 07:02:25;;;;;;;6.60;2.43;;;7.50;99.50;;;8.68;77.02;99372.81;3082876;46;20430;-66
2024/01/02 07:04:54;;;;;;;5.47;2.03;;;7.50;99.50;;;8.68;76.94;99362.34;3082829;46;20431;-66
2024/01/02 07:07:23;;;;;;;4.03;2.40;;;7.50;99.50;;;8.67;76.75;99356.31;3082182;46;20573;-66
2024/01/02 07:09:51;;;;;;;6.13;1.97;;;7.50;99.60;;;8.62;76.91;99360.50;3082307;46;20476;-65
2024/01/02 07:12:20;;;;;;;3.73;2.30;;;7.50;99.50;;;8.62;77.24;99347.41;3082760;46;21011;-65
2024/01/02 07:14:49;;;;;;;5.53;2.23;;;7.50;99.50;;;8.68;77.04;99359.72;3082748;46;21081;-62
2024/01/02 07:17:19;;;;;;;4.60;2.10;;;7.50;99.50;;;8.73;76.98;99349.44;3082230;46;20480;-62
2024/01/02 07:19:48;;;;;;;6.13;2.27;;;7.50;99.60;;;8.74;76.60;99345.84;3082480;46;20911;-65
2024/01/02 07:22:17;;;;;;;3.53;2.30;;;7.50;99.60;;;8.76;76.69;99344.63;3082681;46;20423;-65
2024/01/02 07:24:46;;;;;;;3.37;2.00;;;7.50;99.60;;;8.64;76.91;99327.03;3082429;46;20463;-63
2024/01/02 07:27:15;;;;;;;4.97;2.40;;;7.50;99.50;;;8.67;76.99;99339.75;3081992;46;20468;-65
2024/01/02 07:29:44;;;;;;;5.67;2.17;;;7.50;99.50;;;8.68;76.89;99336.94;3081571;46;20445;-64
2024/01/02 07:32:13;;;;;;;6.03;2.50;;;7.50;99.50;;;8.75;76.75;99326.44;3082113;46;20427;-64
2024/01/02 07:34:42;;;;;;;5.87;2.50;;;7.60;99.60;;;8.76;77.07;99301.84;3082585;43;20444;-63
2024/01/02 07:37:12;;;;;;;6.60;2.23;;;7.60;99.60;;;8.69;76.82;99314.13;3082434;46;20471;-66
2024/01/02 07:39:43;;;;;;;5.63;2.20;;;7.60;99.50;;;8.68;77.13;99300.22;3082111;46;20456;-65
2024/01/02 07:42:13;;;;;;;3.17;2.00;;;7.60;99.60;;;8.72;77.05;99303.25;3082142;46;21074;-65
2024/01/02 07:44:41;;;;;;;6.80;2.30;;;7.60;99.60;;;8.62;77.08;99289.72;3082082;46;20453;-65
2024/01/02 07:47:10;;;;;;;5.47;2.33;;;7.50;99.60;;;8.63;77.29;99280.81;3081204;46;20459;-66
2024/01/02 07:49:42;;;;;;;3.33;2.10;;;7.50;99.60;;;8.57;77.73;99292.13;3082102;46;20443;-66
2024/01/02 07:52:10;;;;;;;4.37;2.30;;;7.60;99.70;;;8.54;78.20;99292.50;3081437;46;20427;-63
2024/01/02 07:54:40;;;;;;;7.77;2.33;;;7.50;99.70;;;8.51;77.95;99266.69;3081962;46;20436;-65
2024/01/02 07:57:09;;;;;;;4.57;2.10;;;7.50;99.70;;;8.58;77.91;99272.78;3081714;46;20465;-65
2024/01/02 07:59:38;;;;;;;4.67;2.43;;;7.50;99.80;;;8.58;77.79;99278.00;3081307;46;21055;-65
2024/01/02 08:02:07;;;;;;;5.33;2.80;;;7.50;99.80;;;8.63;78.06;99271.16;3082073;46;20429;-66
2024/01/02 08:04:35;;;;;;;5.70;2.47;;;7.50;99.80;;;8.60;77.72;99268.94;3082156;46;20526;-62
2024/01/02 08:07:04;;;;;;;2.43;2.23;;;7.50;99.80;;;8.66;77.96;99264.69;3081105;46;20460;-65
2024/01/02 08:09:33;;;;;;;4.37;2.37;;;7.60;99.90;;;8.63;77.92;99265.09;3081013;46;20509;-62
2024/01/02 08:12:02;;;;;;;3.57;2.00;;;7.60;99.90;;;8.63;78.16;99260.66;3081599;46;20482;-66
2024/01/02 08:14:30;;;;;;;3.17;2.40;;;7.60;99.90;;;8.64;78.26;99250.97;3081826;43;20499;-66
2024/01/02 08:16:59;;;;;;;3.20;2.30;;;7.50;99.90;;;8.55;78.05;99246.94;3080127;46;20455;-65
2024/01/02 08:19:28;;;;;;;3.10;2.00;;;7.50;99.90;;;8.55;78.48;99246.94;3080163;46;21124;-64
2024/01/02 08:21:56;;;;;;;4.57;2.23;;;7.50;99.90;;;8.56;78.55;99244.09;3081412;46;20452;-64
2024/01/02 08:24:26;;;;;;;4.13;2.17;;;7.50;99.90;;;8.56;78.36;99231.00;3080925;46;20534;-65
2024/01/02 08:26:55;;;;;;;3.57;2.10;;;7.50;99.90;;;8.58;78.29;99225.56;3080692;46;20467;-65
2024/01/02 08:29:23;;;;;;;2.90;2.10;;;7.50;99.90;;;8.63;78.44;99238.88;3081341;46;20424;-63
2024/01/02 08:31:53;;;;;;;4.53;1.80;;;7.50;99.90;;;8.72;78.29;99243.72;3080774;46;20471;-65
2024/01/02 08:34:22;;;;;;;3.90;2.00;;;7.50;99.90;;;8.80;77.82;99250.59;3081857;46;20988;-65
2024/01/02 08:36:52;;;;;;;4.27;1.93;;;7.60;99.90;;;8.86;77.43;99255.06;3080572;46;20572;-63
2024/01/02 08:39:24;;;;;;;2.80;1.53;;;7.50;99.90;;;8.80;77.47;99240.09;3081632;46;21077;-64
2024/01/02 08:42:04;;;;;;;1.47;1.37;;;7.50;99.90;;;8.81;77.30;99245.16;3080232;46;20435;-66
2024/01/02 08:44:33;;;;;;;2.30;1.63;;;7.60;99.90;;;8.79;77.59;99249.00;3081399;46;20461;-64
2024/01/02 08:47:02;;;;;;;2.17;1.50;;;7.60;99.90;;;8.87;77.37;99240.13;3080657;46;20521;-65
2024/01/02 08:49:30;;;;;;;3.37;1.90;;;7.60;99.90;;;8.88;77.42;99237.31;3080415;46;20489;-64
2024/01/02 08:51:59;;;;;;;4.27;2.53;;;7.60;99.90;;;8.85;77.52;99238.50;3080944;46;20579;-64
2024/01/02 08:54:27;;;;;;;4.83;1.90;;;7.60;99.90;;;8.85;77.39;99227.19;3079686;46;20539;-65
2024/01/02 08:56:56;;;;;;;2.20;1.30;;;7.60;99.90;;;8.86;77.66;99215.72;3080818;46;21002;-64
2024/01/02 08:59:25;;;;;;;1.83;1.20;;;7.60;99.90;;;8.75;77.45;99211.03;3080436;46;21021;-64
2024/01/02 09:01:53;;;;;;;1.67;1.30;;;7.60;99.90;;;8.77;77.80;99198.56;3079782;46;20477;-64
2024/01/02 09:04:23;;;;;;;2.90;1.43;;;7.60;99.90;;;8.77;77.42;99198.56;3080843;46;21376;-61
2024/01/02 09:06:51;;;;;;;1.63;1.10;;;7.60;99.90;;;8.83;77.67;99198.56;3080283;46;20423;-65
2024/01/02 09:09:20;;;;;;;1.10;1.00;;;7.60;99.90;;;8.88;77.57;99189.28;3080797;46;20448;-65
2024/01/02 09:11:49;;;;;;;1.27;0.80;;;7.60;99.90;;;8.85;77.30;99190.47;3081112;46;20426;-65
2024/01/02 09:14:18;;;;;;;0.63;0.60;;;7.60;99.90;;;8.77;77.29;99188.06;3080519;46;20566;-64
2024/01/02 09:16:48;;;;;;;1.63;0.90;;;7.60;99.90;;;8.67;77.84;99185.03;3080935;46;21032;-66
2024/01/02 09:19:17;;;;;;;0.70;0.70;;;7.60;99.90;;;8.65;77.79;99184.44;3080505;46;20431;-65
2024/01/02 09:21:46;;;;;;;1.50;1.20;;;7.60;99.90;;;8.68;77.96;99189.25;3080158;46;21113;-66
2024/01/02 09:24:18;;;;;;;1.67;0.80;;;7.50;99.90;;;8.63;78.25;99181.16;3080061;46;20433;-63
2024/01/02 09:26:54;;;;;;;1.20;1.10;;;7.50;99.90;;;8.60;78.30;99181.59;3079115;46;20531;-66
2024/01/02 09:29:24;;;;;;;3.43;1.10;;;7.60;99.90;;;8.66;78.40;99170.28;3080722;46;20424;-63
2024/01/02 09:31:53;;;;;;;1.10;1.00;;;7.50;99.90;;;8.70;77.90;99168.91;3080819;46;20452;-65
2024/01/02 09:34:22;;;;;;;0.87;0.87;;;7.50;99.90;;;8.68;78.24;99179.56;3081276;46;20997;-63
2024/01/02 09:36:53;;;;;;;1.27;0.87;;;7.60;99.90;;;8.67;78.10;99169.28;3080596;46;20459;-63
2024/01/02 09:39:22;;;;;;;0.97;0.80;;;7.60;99.90;;;8.77;77.92;99169.72;3080438;46;20428;-65
2024/01/02 09:42:28;;;;;;;1.03;0.93;;;7.60;99.90;;;8.74;77.93;99173.53;3080679;46;20499;-65
2024/01/02 09:45:16;;;;;;;1.73;0.70;;;7.60;99.90;;;8.80;77.93;99161.41;3080692;46;20974;-62
2024/01/02 09:48:21;;;;;;;1.00;0.90;;;7.60;99.90;;;8.71;78.18;99150.34;3080206;46;20436;-62
2024/01/02 09:51:08;;;;;;;0.93;0.70;;;7.60;99.90;;;8.68;78.32;99157.78;3079803;46;20458;-65
2024/01/02 09:54:35;;;;;;;2.30;0.93;;;7.60;99.90;;;8.75;78.17;99154.16;3080530;46;20538;-62
2024/01/02 09:57:41;;;;;;;1.33;1.00;;;7.60;99.90;;;8.85;78.16;99148.50;3079764;46;20554;-65
2024/01/02 10:01:03;;;;;;;1.97;0.90;;;7.60;99.90;;;8.90;77.61;99171.50;3079557;46;21013;-66
2024/01/02 10:03:58;;;;;;;0.77;0.77;;;7.60;99.90;;;8.94;78.01;99163.03;3080310;46;21026;-64
2024/01/02 10:07:59;;;;;;;1.50;0.83;;;7.70;99.90;;;8.96;77.33;99171.53;3079396;46;20431;-62
2024/01/02 10:11:06;;;;;;;0.70;0.60;;;7.70;99.90;;;8.95;77.52;99169.09;3080577;46;20435;-62
2024/01/02 10:13:59;;;;;;;0.70;0.60;;;7.70;99.90;;;8.97;77.27;99157.38;3080722;43;20468;-63
2024/01/02 10:16:50;;;;;;;0.53;0.53;;;7.70;99.90;;;8.96;77.25;99155.78;3081314;46;20455;-63
2024/01/02 10:19:51;;;;;;;1.37;0.87;;;7.70;99.90;;;9.00;77.28;99136.00;3081835;46;20451;-64
2024/01/02 10:22:41;;;;;;;0.70;0.70;;;7.70;99.90;;;8.96;77.26;99134.78;3082135;46;20427;-66
2024/01/02 10:25:18;;;;;;;1.30;0.80;;;7.70;99.90;;;9.02;77.39;99127.91;3082754;46;20427;-65
2024/01/02 10:28:14;;;;;;;1.43;1.00;;;7.70;99.90;;;9.05;77.40;99127.50;3081528;46;20465;-65
2024/01/02 10:31:00;;;;;;;1.10;0.80;;;7.70;99.90;;;9.12;77.18;99120.44;3082161;46;21131;-63
2024/01/02 10:33:43;;;;;;;1.23;0.60;;;7.80;99.90;;;9.18;77.24;99116.97;3080845;46;21104;-64
2024/01/02 10:36:22;;;;;;;0.70;0.60;;;7.80;99.90;;;9.27;76.94;99121.00;3081436;46;21001;-62
2024/01/02 10:39:16;;;;;;;1.37;1.27;;;7.80;99.90;;;9.33;76.59;99115.72;3081786;46;20444;-66
2024/01/02 10:42:50;;;;;;;1.23;0.97;;;7.90;99.90;;;9.33;76.30;99122.78;3080555;46;20429;-64
2024/01/02 10:45:48;;;;;;;1.07;0.97;;;7.90;99.90;;;9.33;76.58;99115.72;3081155;46;21012;-66